Time Latitude Longitude Accuracy (66% radius in meters) Altitude (meters) Speed (km/hour) Bearing (degrees) Battery (%) GPS flag
06:48:56 57.205160 60.114810 0 0 0 0 1 delete
06:48:55 57.205172 60.114893 0 0 0 0 1 delete
06:48:54 57.205183 60.114962 0 0 0 0 1 delete
06:48:53 57.205193 60.115020 0 0 0 0 1 delete
06:48:52 57.205200 60.115088 0 0 0 0 1 delete
06:48:51 57.205202 60.115152 0 0 0 0 1 delete
06:48:50 57.205202 60.115210 0 0 0 0 1 delete
06:48:49 57.205202 60.115265 0 0 0 0 1 delete
06:48:48 57.205210 60.115312 0 0 0 0 1 delete
06:48:47 57.205223 60.115343 0 0 0 0 1 delete
06:48:46 57.205238 60.115362 0 0 0 0 1 delete
06:48:45 57.205257 60.115363 0 0 0 0 1 delete
06:48:44 57.205277 60.115348 0 0 0 0 1 delete
06:48:43 57.205295 60.115318 0 0 0 0 1 delete
06:48:42 57.205320 60.115290 0 0 0 0 1 delete
06:48:41 57.205345 60.115268 0 0 0 0 1 delete
06:48:40 57.205370 60.115247 0 0 0 0 1 delete
06:48:39 57.205398 60.115222 0 0 0 0 1 delete
06:48:38 57.205423 60.115207 0 0 0 0 1 delete
06:48:37 57.205447 60.115182 0 0 0 0 1 delete
06:48:36 57.205465 60.115155 0 0 0 0 1 delete
06:48:35 57.205483 60.115128 0 0 0 0 1 delete
06:48:34 57.205498 60.115095 0 0 0 0 1 delete
06:48:33 57.205515 60.115062 0 0 0 0 1 delete
06:48:32 57.205535 60.115023 0 0 0 0 1 delete
06:48:31 57.205557 60.114983 0 0 0 0 1 delete
06:48:30 57.205573 60.114947 0 0 0 0 1 delete
06:48:29 57.205595 60.114917 0 0 0 0 1 delete
06:48:28 57.205617 60.114873 0 0 0 0 1 delete
06:48:27 57.205638 60.114830 0 0 0 0 1 delete
06:48:26 57.205657 60.114787 0 0 0 0 1 delete
06:48:25 57.205670 60.114747 0 0 0 0 1 delete
06:48:24 57.205685 60.114713 0 0 0 0 1 delete
06:48:23 57.205693 60.114688 0 0 0 0 1 delete
06:48:22 57.205705 60.114662 0 0 0 0 1 delete
06:48:21 57.205715 60.114632 0 0 0 0 1 delete
06:48:20 57.205723 60.114605 0 0 0 0 1 delete
06:48:19 57.205738 60.114583 0 0 0 0 1 delete
06:48:18 57.205753 60.114555 0 0 0 0 1 delete
06:48:17 57.205768 60.114527 0 0 0 0 1 delete
06:48:16 57.205785 60.114498 0 0 0 0 1 delete
06:48:15 57.205807 60.114468 0 0 0 0 1 delete
06:48:14 57.205832 60.114438 0 0 0 0 1 delete
06:48:13 57.205852 60.114410 0 0 0 0 1 delete
06:48:12 57.205870 60.114382 0 0 0 0 1 delete
06:48:11 57.205890 60.114353 0 0 0 0 1 delete
06:48:10 57.205913 60.114328 0 0 0 0 1 delete
06:48:09 57.205935 60.114310 0 0 0 0 1 delete
06:48:08 57.205958 60.114283 0 0 0 0 1 delete
06:48:07 57.205980 60.114242 0 0 0 0 1 delete